TimeEST,TemperatureF,Dew PointF,Humidity,Sea Level PressureIn,VisibilityMPH,Wind Direction,Wind SpeedMPH,Gust SpeedMPH,PrecipitationIn,Events,Conditions,WindDirDegrees,DateUTC
12:53 AM,34.0,32.0,92,30.00,9.0,East,9.2,-,0.07,Rain,Light Rain,80,2013-02-22 05:53:00
1:53 AM,35.1,33.1,92,29.97,10.0,ENE,4.6,-,0.00,,Overcast,60,2013-02-22 06:53:00
2:53 AM,36.0,35.1,97,29.95,6.0,ESE,3.5,-,0.04,Rain,Light Rain,120,2013-02-22 07:53:00
3:53 AM,37.0,36.0,96,29.93,8.0,Calm,Calm,-,0.05,Rain,Light Rain,0,2013-02-22 08:53:00
4:53 AM,37.9,37.9,100,29.91,7.0,SSE,4.6,-,0.00,,Overcast,150,2013-02-22 09:53:00
5:53 AM,44.1,41.0,89,29.93,10.0,South,4.6,-,N/A,,Overcast,170,2013-02-22 10:53:00
6:42 AM,46.4,42.8,87,29.94,10.0,South,9.2,17.3,N/A,,Overcast,180,2013-02-22 11:42:00
6:53 AM,46.9,42.1,83,29.95,10.0,South,9.2,17.3,N/A,,Overcast,190,2013-02-22 11:53:00
7:53 AM,48.0,42.1,80,29.97,10.0,South,6.9,-,N/A,,Overcast,180,2013-02-22 12:53:00
8:53 AM,48.0,42.1,80,29.99,10.0,South,9.2,-,N/A,,Overcast,170,2013-02-22 13:53:00
9:53 AM,50.0,43.0,77,29.99,10.0,South,12.7,17.3,N/A,,Overcast,180,2013-02-22 14:53:00
10:28 AM,51.8,44.6,76,29.99,10.0,South,11.5,-,N/A,,Overcast,190,2013-02-22 15:28:00
10:53 AM,53.1,44.1,71,30.00,10.0,SSW,16.1,24.2,N/A,,Overcast,200,2013-02-22 15:53:00
11:10 AM,53.6,44.6,72,29.98,10.0,SSW,11.5,-,N/A,,Overcast,210,2013-02-22 16:10:00
11:27 AM,53.6,44.6,72,29.99,10.0,SW,10.4,18.4,N/A,,Overcast,220,2013-02-22 16:27:00
11:53 AM,52.0,45.0,77,30.00,10.0,WSW,8.1,-,N/A,,Overcast,240,2013-02-22 16:53:00
12:23 PM,53.6,44.6,72,29.99,10.0,WSW,9.2,-,N/A,,Overcast,240,2013-02-22 17:23:00
12:53 PM,54.0,45.0,72,30.00,10.0,SSW,6.9,-,N/A,,Overcast,210,2013-02-22 17:53:00
1:40 PM,57.2,46.4,67,29.99,10.0,SW,11.5,17.3,N/A,,Overcast,230,2013-02-22 18:40:00
1:53 PM,55.9,45.0,67,29.99,10.0,SW,12.7,24.2,N/A,,Overcast,230,2013-02-22 18:53:00
2:53 PM,57.9,45.0,62,29.96,10.0,SSW,13.8,25.3,N/A,,Mostly Cloudy,210,2013-02-22 19:53:00
3:53 PM,57.0,45.0,64,29.96,10.0,SSW,8.1,20.7,N/A,,Scattered Clouds,210,2013-02-22 20:53:00
4:53 PM,55.9,45.0,67,29.96,10.0,SW,12.7,19.6,N/A,,Partly Cloudy,230,2013-02-22 21:53:00
5:53 PM,54.0,45.0,72,29.96,10.0,SSW,10.4,-,N/A,,Partly Cloudy,210,2013-02-22 22:53:00
6:53 PM,52.0,45.0,77,29.96,10.0,SSW,8.1,-,N/A,,Clear,210,2013-02-22 23:53:00
7:53 PM,50.0,44.1,80,29.98,10.0,SSW,5.8,-,N/A,,Clear,200,2013-02-23 00:53:00
8:53 PM,50.0,44.1,80,29.99,10.0,WSW,6.9,-,N/A,,Clear,240,2013-02-23 01:53:00
9:53 PM,48.9,44.1,83,29.99,10.0,SW,5.8,-,N/A,,Clear,220,2013-02-23 02:53:00
10:53 PM,48.9,44.1,83,29.99,10.0,SSW,4.6,-,N/A,,Clear,210,2013-02-23 03:53:00
11:53 PM,48.9,44.1,83,29.98,10.0,SW,5.8,-,N/A,,Clear,220,2013-02-23 04:53:00